Wetterdaten: aktuell Mittwoch, 21.11.2018 11:55
Datum Zeit Temp. A. Feuchte A. Luftdruck Regen Wind Richtung Richtung Taupunkt Windchill Windben
21.11.2018 11:55 2,3 C 78 % 1014,9 hPa 0,0 l/m 2,1 km/h (1 Bft) S 182 -1,1 C 2,3 C 4,8 km/h (1 Bft)
21.11.2018 11:50 2,0 C 80 % 1015,1 hPa 0,0 l/m 3,7 km/h (1 Bft) S-SW 193 -1,1 C 2,0 C 9,7 km/h (2 Bft)
21.11.2018 11:45 1,6 C 81 % 1015,1 hPa 0,0 l/m 4,7 km/h (1 Bft) S 188 -1,3 C 1,6 C 8,0 km/h (2 Bft)
21.11.2018 11:40 1,7 C 80 % 1015,1 hPa 0,0 l/m 4,5 km/h (1 Bft) S 184 -1,4 C 1,7 C 8,0 km/h (2 Bft)
21.11.2018 11:35 1,7 C 80 % 1015,1 hPa 0,0 l/m 5,2 km/h (1 Bft) S 182 -1,4 C 1,7 C 8,0 km/h (2 Bft)
21.11.2018 11:30 1,6 C 80 % 1015,0 hPa 0,0 l/m 4,9 km/h (1 Bft) S 179 -1,5 C 1,6 C 8,0 km/h (2 Bft)
21.11.2018 11:25 1,3 C 82 % 1015,0 hPa 0,0 l/m 6,5 km/h (2 Bft) S 184 -1,4 C 1,2 C 9,7 km/h (2 Bft)
21.11.2018 11:20 1,2 C 82 % 1015,0 hPa 0,0 l/m 5,0 km/h (1 Bft) S 186 -1,5 C 1,2 C 9,7 km/h (2 Bft)
21.11.2018 11:15 1,4 C 81 % 1015,0 hPa 0,0 l/m 4,6 km/h (1 Bft) S 185 -1,5 C 1,4 C 8,0 km/h (2 Bft)
21.11.2018 11:10 1,6 C 81 % 1014,9 hPa 0,0 l/m 3,3 km/h (1 Bft) S 182 -1,3 C 1,6 C 8,0 km/h (2 Bft)
21.11.2018 11:05 1,1 C 83 % 1014,8 hPa 0,0 l/m 4,3 km/h (1 Bft) S 177 -1,5 C 1,1 C 6,4 km/h (2 Bft)
21.11.2018 11:00 0,7 C 83 % 1014,8 hPa 0,0 l/m 4,2 km/h (1 Bft) S 182 -1,8 C 0,7 C 8,0 km/h (2 Bft)
21.11.2018 10:55 0,6 C 84 % 1014,8 hPa 0,0 l/m 4,6 km/h (1 Bft) S 177 -1,8 C 0,6 C 8,0 km/h (2 Bft)
21.11.2018 10:50 0,6 C 83 % 1014,8 hPa 0,0 l/m 5,3 km/h (1 Bft) S 187 -1,9 C 0,6 C 8,0 km/h (2 Bft)
21.11.2018 10:45 0,7 C 84 % 1014,8 hPa 0,0 l/m 5,7 km/h (1 Bft) S-SO 167 -1,7 C 0,7 C 9,7 km/h (2 Bft)
21.11.2018 10:40 0,4 C 86 % 1014,7 hPa 0,0 l/m 5,6 km/h (1 Bft) S-SW 194 -1,7 C 0,4 C 9,7 km/h (2 Bft)
21.11.2018 10:35 0,0 C 85 % 1014,7 hPa 0,0 l/m 4,8 km/h (1 Bft) S 182 -2,2 C 0,0 C 8,0 km/h (2 Bft)
21.11.2018 10:30 -0,1 C 85 % 1014,6 hPa 0,0 l/m 5,0 km/h (1 Bft) S 171 -2,3 C -0,1 C 8,0 km/h (2 Bft)
21.11.2018 10:25 -0,1 C 85 % 1014,6 hPa 0,0 l/m 5,6 km/h (1 Bft) S 180 -2,3 C -0,1 C 8,0 km/h (2 Bft)
21.11.2018 10:20 0,0 C 85 % 1014,5 hPa 0,0 l/m 5,4 km/h (1 Bft) S 184 -2,2 C 0,0 C 9,7 km/h (2 Bft)
21.11.2018 10:15 0,2 C 85 % 1014,4 hPa 0,0 l/m 5,3 km/h (1 Bft) S 185 -2,0 C 0,2 C 8,0 km/h (2 Bft)
21.11.2018 10:10 0,3 C 85 % 1014,2 hPa 0,0 l/m 3,1 km/h (1 Bft) S 182 -1,9 C 0,3 C 8,0 km/h (2 Bft)
21.11.2018 10:05 0,3 C 85 % 1014,4 hPa 0,0 l/m 4,5 km/h (1 Bft) S 182 -1,9 C 0,3 C 8,0 km/h (2 Bft)
21.11.2018 10:00 0,3 C 84 % 1014,5 hPa 0,0 l/m 4,6 km/h (1 Bft) S 186 -2,1 C 0,3 C 6,4 km/h (2 Bft)
21.11.2018 09:55 0,3 C 84 % 1014,3 hPa 0,0 l/m 2,8 km/h (1 Bft) S-SW 202 -2,1 C 0,3 C 4,8 km/h (1 Bft)
21.11.2018 09:50 0,2 C 84 % 1014,4 hPa 0,0 l/m 1,1 km/h (1 Bft) S-SW 206 -2,2 C 0,2 C 3,2 km/h (1 Bft)
21.11.2018 09:45 -0,1 C 85 % 1014,2 hPa 0,0 l/m 2,2 km/h (1 Bft) S-SW 206 -2,3 C -0,1 C 4,8 km/h (1 Bft)
21.11.2018 09:40 -0,2 C 86 % 1014,3 hPa 0,0 l/m 2,2 km/h (1 Bft) S-SW 206 -2,3 C -0,2 C 4,8 km/h (1 Bft)
21.11.2018 09:35 -0,4 C 86 % 1014,2 hPa 0,0 l/m 0,9 km/h (0 Bft) S-SW 206 -2,4 C -0,4 C 3,2 km/h (1 Bft)
21.11.2018 09:30 -0,7 C 87 % 1014,2 hPa 0,0 l/m 3,5 km/h (1 Bft) S-SW 206 -2,6 C -0,7 C 4,8 km/h (1 Bft)
21.11.2018 09:25 -0,7 C 87 % 1014,3 hPa 0,0 l/m 2,7 km/h (1 Bft) S-SW 213 -2,6 C -0,7 C 4,8 km/h (1 Bft)
21.11.2018 09:20 -0,9 C 87 % 1014,4 hPa 0,0 l/m 3,0 km/h (1 Bft) W-SW 255 -2,8 C -0,9 C 4,8 km/h (1 Bft)
21.11.2018 09:15 -0,8 C 86 % 1014,3 hPa 0,0 l/m 1,4 km/h (1 Bft) W 267 -2,8 C -0,8 C 3,2 km/h (1 Bft)
21.11.2018 09:10 -0,9 C 87 % 1014,2 hPa 0,0 l/m 1,6 km/h (1 Bft) W 267 -2,8 C -0,9 C 3,2 km/h (1 Bft)
21.11.2018 09:05 -1,2 C 87 % 1014,2 hPa 0,0 l/m 1,5 km/h (1 Bft) W-NW 282 -3,1 C -1,2 C 4,8 km/h (1 Bft)
21.11.2018 09:00 -1,2 C 87 % 1014,1 hPa 0,0 l/m 1,9 km/h (1 Bft) W 259 -3,1 C -1,2 C 3,2 km/h (1 Bft)
21.11.2018 08:55 -1,2 C 88 % 1014,0 hPa 0,0 l/m 2,5 km/h (1 Bft) W 259 -2,9 C -1,2 C 4,8 km/h (1 Bft)
21.11.2018 08:50 -1,3 C 88 % 1014,0 hPa 0,0 l/m 0,7 km/h (0 Bft) N-NW 329 -3,0 C -1,3 C 3,2 km/h (1 Bft)
21.11.2018 08:45 -1,4 C 88 % 1013,6 hPa 0,0 l/m 1,3 km/h (1 Bft) N-NW 329 -3,1 C -1,4 C 3,2 km/h (1 Bft)
21.11.2018 08:40 -1,5 C 88 % 1013,5 hPa 0,0 l/m 0,0 km/h (0 Bft) N-NW 329 -3,2 C -1,5 C 0,0 km/h (0 Bft)
21.11.2018 08:35 -1,6 C 88 % 1013,3 hPa 0,0 l/m 0,0 km/h (0 Bft) N-NW 329 -3,3 C -1,6 C 0,0 km/h (0 Bft)
21.11.2018 08:30 -1,7 C 87 % 1013,2 hPa 0,0 l/m 0,0 km/h (0 Bft) N-NW 329 -3,6 C -1,7 C 0,0 km/h (0 Bft)
21.11.2018 08:25 -1,7 C 87 % 1013,1 hPa 0,0 l/m 0,1 km/h (0 Bft) N-NW 329 -3,6 C -1,7 C 1,6 km/h (1 Bft)
21.11.2018 08:20 -1,7 C 87 % 1012,9 hPa 0,0 l/m 0,1 km/h (0 Bft) N-NW 329 -3,6 C -1,7 C 1,6 km/h (1 Bft)
21.11.2018 08:15 -1,7 C 87 % 1012,8 hPa 0,0 l/m 0,0 km/h (0 Bft) N-NW 329 -3,6 C -1,7 C 0,0 km/h (0 Bft)
21.11.2018 08:10 -1,7 C 87 % 1012,9 hPa 0,0 l/m 0,0 km/h (0 Bft) N-NW 329 -3,6 C -1,7 C 0,0 km/h (0 Bft)
21.11.2018 08:05 -1,7 C 87 % 1012,8 hPa 0,0 l/m 0,0 km/h (0 Bft) N-NW 329 -3,6 C -1,7 C 0,0 km/h (0 Bft)
21.11.2018 08:00 -1,7 C 87 % 1012,8 hPa 0,0 l/m 0,0 km/h (0 Bft) N-NW 329 -3,6 C -1,7 C 0,0 km/h (0 Bft)
21.11.2018 07:55 -1,7 C 87 % 1012,7 hPa 0,0 l/m 0,0 km/h (0 Bft) N-NW 329 -3,6 C -1,7 C 1,6 km/h (1 Bft)
21.11.2018 07:50 -1,7 C 87 % 1012,7 hPa 0,0 l/m 0,0 km/h (0 Bft) N-NW 329 -3,6 C -1,7 C 0,0 km/h (0 Bft)
21.11.2018 07:45 -1,7 C 87 % 1012,7 hPa 0,0 l/m 0,0 km/h (0 Bft) N-NW 329 -3,6 C -1,7 C 0,0 km/h (0 Bft)
21.11.2018 07:40 -1,6 C 87 % 1012,6 hPa 0,0 l/m 0,0 km/h (0 Bft) N-NW 329 -3,5 C -1,6 C 0,0 km/h (0 Bft)
21.11.2018 07:35 -1,6 C 87 % 1012,6 hPa 0,0 l/m 0,0 km/h (0 Bft) N-NW 329 -3,5 C -1,6 C 0,0 km/h (0 Bft)
21.11.2018 07:30 -1,6 C 87 % 1012,4 hPa 0,0 l/m 0,0 km/h (0 Bft) N-NW 329 -3,5 C -1,6 C 0,0 km/h (0 Bft)
21.11.2018 07:25 -1,6 C 87 % 1012,3 hPa 0,0 l/m 0,0 km/h (0 Bft) N-NW 329 -3,5 C -1,6 C 0,0 km/h (0 Bft)
21.11.2018 07:20 -1,6 C 87 % 1012,3 hPa 0,0 l/m 0,2 km/h (0 Bft) N-NW 329 -3,5 C -1,6 C 1,6 km/h (1 Bft)
21.11.2018 07:15 -1,6 C 88 % 1012,2 hPa 0,0 l/m 2,0 km/h (1 Bft) N-NW 329 -3,3 C -1,6 C 4,8 km/h (1 Bft)
21.11.2018 07:10 -1,7 C 87 % 1012,2 hPa 0,0 l/m 4,5 km/h (1 Bft) N-NW 341 -3,6 C -1,7 C 8,0 km/h (2 Bft)
21.11.2018 07:05 -1,7 C 87 % 1012,3 hPa 0,0 l/m 4,0 km/h (1 Bft) N-NW 348 -3,6 C -1,7 C 4,8 km/h (1 Bft)
21.11.2018 07:00 -1,6 C 87 % 1012,2 hPa 0,0 l/m 4,1 km/h (1 Bft) N 349 -3,5 C -1,6 C 6,4 km/h (2 Bft)
21.11.2018 06:55 -1,6 C 87 % 1012,1 hPa 0,0 l/m 1,6 km/h (1 Bft) N 355 -3,5 C -1,6 C 4,8 km/h (1 Bft)
21.11.2018 06:50 -1,6 C 87 % 1012,0 hPa 0,0 l/m 1,5 km/h (1 Bft) N 355 -3,5 C -1,6 C 3,2 km/h (1 Bft)
21.11.2018 06:45 -1,6 C 87 % 1012,0 hPa 0,0 l/m 0,2 km/h (0 Bft) N 355 -3,5 C -1,6 C 1,6 km/h (1 Bft)
21.11.2018 06:40 -1,6 C 87 % 1012,0 hPa 0,0 l/m 1,6 km/h (1 Bft) N 355 -3,5 C -1,6 C 4,8 km/h (1 Bft)
21.11.2018 06:35 -1,6 C 88 % 1011,9 hPa 0,0 l/m 4,3 km/h (1 Bft) N 355 -3,3 C -1,6 C 6,4 km/h (2 Bft)
21.11.2018 06:30 -1,7 C 88 % 1011,8 hPa 0,0 l/m 4,7 km/h (1 Bft) N 355 -3,4 C -1,7 C 6,4 km/h (2 Bft)
21.11.2018 06:25 -1,8 C 88 % 1011,8 hPa 0,0 l/m 4,3 km/h (1 Bft) N 351 -3,5 C -1,8 C 6,4 km/h (2 Bft)
21.11.2018 06:20 -1,9 C 87 % 1011,7 hPa 0,0 l/m 3,3 km/h (1 Bft) N-NW 342 -3,8 C -1,9 C 6,4 km/h (2 Bft)
21.11.2018 06:15 -2,1 C 87 % 1011,8 hPa 0,0 l/m 1,7 km/h (1 Bft) W 269 -4,0 C -2,1 C 3,2 km/h (1 Bft)
21.11.2018 06:10 -2,1 C 86 % 1011,8 hPa 0,0 l/m 1,6 km/h (1 Bft) W-SW 251 -4,1 C -2,1 C 3,2 km/h (1 Bft)
21.11.2018 06:05 -2,0 C 85 % 1012,0 hPa 0,0 l/m 0,9 km/h (0 Bft) W-SW 238 -4,2 C -2,0 C 3,2 km/h (1 Bft)
21.11.2018 06:00 -1,8 C 85 % 1012,1 hPa 0,0 l/m 0,0 km/h (0 Bft) W-SW 238 -4,0 C -1,8 C 1,6 km/h (1 Bft)
21.11.2018 05:55 -1,8 C 86 % 1012,1 hPa 0,0 l/m 0,3 km/h (0 Bft) W-SW 238 -3,8 C -1,8 C 1,6 km/h (1 Bft)
21.11.2018 05:50 -1,8 C 85 % 1012,1 hPa 0,0 l/m 0,0 km/h (0 Bft) W-SW 238 -4,0 C -1,8 C 0,0 km/h (0 Bft)
21.11.2018 05:45 -1,7 C 85 % 1012,2 hPa 0,0 l/m 0,5 km/h (0 Bft) W-SW 238 -3,9 C -1,7 C 3,2 km/h (1 Bft)
21.11.2018 05:40 -1,7 C 86 % 1012,2 hPa 0,0 l/m 0,3 km/h (0 Bft) W-SW 238 -3,7 C -1,7 C 1,6 km/h (1 Bft)
21.11.2018 05:35 -1,7 C 86 % 1012,1 hPa 0,0 l/m 0,1 km/h (0 Bft) W-SW 238 -3,7 C -1,7 C 1,6 km/h (1 Bft)
21.11.2018 05:30 -1,6 C 86 % 1012,0 hPa 0,0 l/m 0,4 km/h (0 Bft) W-SW 238 -3,6 C -1,6 C 1,6 km/h (1 Bft)
21.11.2018 05:25 -1,6 C 86 % 1012,0 hPa 0,0 l/m 0,4 km/h (0 Bft) W-SW 238 -3,6 C -1,6 C 1,6 km/h (1 Bft)
21.11.2018 05:20 -1,7 C 86 % 1012,0 hPa 0,0 l/m 0,9 km/h (0 Bft) W-SW 238 -3,7 C -1,7 C 3,2 km/h (1 Bft)
21.11.2018 05:15 -1,6 C 86 % 1012,0 hPa 0,0 l/m 1,2 km/h (1 Bft) W-SW 238 -3,6 C -1,6 C 3,2 km/h (1 Bft)
21.11.2018 05:10 -1,6 C 86 % 1012,0 hPa 0,0 l/m 1,3 km/h (1 Bft) W-SW 238 -3,6 C -1,6 C 3,2 km/h (1 Bft)
21.11.2018 05:05 -1,6 C 87 % 1012,0 hPa 0,0 l/m 0,1 km/h (0 Bft) W-SW 238 -3,5 C -1,6 C 1,6 km/h (1 Bft)
21.11.2018 05:00 -1,7 C 86 % 1012,0 hPa 0,0 l/m 1,5 km/h (1 Bft) W-SW 238 -3,7 C -1,7 C 4,8 km/h (1 Bft)
21.11.2018 04:55 -1,6 C 87 % 1012,1 hPa 0,0 l/m 2,9 km/h (1 Bft) W-SW 238 -3,5 C -1,6 C 4,8 km/h (1 Bft)
21.11.2018 04:50 -1,7 C 87 % 1012,0 hPa 0,0 l/m 1,8 km/h (1 Bft) W-SW 258 -3,6 C -1,7 C 3,2 km/h (1 Bft)
21.11.2018 04:45 -1,7 C 87 % 1012,0 hPa 0,0 l/m 0,7 km/h (0 Bft) W 262 -3,6 C -1,7 C 3,2 km/h (1 Bft)
21.11.2018 04:40 -1,8 C 86 % 1012,0 hPa 0,0 l/m 0,2 km/h (0 Bft) W 262 -3,8 C -1,8 C 1,6 km/h (1 Bft)
21.11.2018 04:35 -1,8 C 86 % 1012,0 hPa 0,0 l/m 1,4 km/h (1 Bft) W 262 -3,8 C -1,8 C 3,2 km/h (1 Bft)
21.11.2018 04:30 -1,8 C 86 % 1011,9 hPa 0,0 l/m 1,2 km/h (1 Bft) W 262 -3,8 C -1,8 C 4,8 km/h (1 Bft)
21.11.2018 04:25 -1,8 C 86 % 1011,8 hPa 0,0 l/m 0,6 km/h (0 Bft) W 269 -3,8 C -1,8 C 3,2 km/h (1 Bft)
21.11.2018 04:20 -1,8 C 86 % 1011,8 hPa 0,0 l/m 0,0 km/h (0 Bft) W 269 -3,8 C -1,8 C 1,6 km/h (1 Bft)
21.11.2018 04:15 -1,8 C 86 % 1011,6 hPa 0,0 l/m 0,2 km/h (0 Bft) W 269 -3,8 C -1,8 C 1,6 km/h (1 Bft)
21.11.2018 04:10 -1,8 C 85 % 1011,5 hPa 0,0 l/m 0,7 km/h (0 Bft) W 269 -4,0 C -1,8 C 3,2 km/h (1 Bft)
21.11.2018 04:05 -1,8 C 85 % 1011,5 hPa 0,0 l/m 2,5 km/h (1 Bft) W 269 -4,0 C -1,8 C 3,2 km/h (1 Bft)
21.11.2018 04:00 -1,8 C 85 % 1011,4 hPa 0,0 l/m 2,6 km/h (1 Bft) W 269 -4,0 C -1,8 C 4,8 km/h (1 Bft)
21.11.2018 03:55 -1,7 C 86 % 1011,2 hPa 0,0 l/m 0,9 km/h (0 Bft) N-NW 344 -3,7 C -1,7 C 3,2 km/h (1 Bft)
21.11.2018 03:50 -1,7 C 86 % 1011,1 hPa 0,0 l/m 0,1 km/h (0 Bft) N-NW 344 -3,7 C -1,7 C 1,6 km/h (1 Bft)
21.11.2018 03:45 -1,7 C 86 % 1011,1 hPa 0,0 l/m 0,2 km/h (0 Bft) N-NW 344 -3,7 C -1,7 C 1,6 km/h (1 Bft)
21.11.2018 03:40 -1,7 C 86 % 1011,0 hPa 0,0 l/m 2,1 km/h (1 Bft) N-NW 344 -3,7 C -1,7 C 4,8 km/h (1 Bft)
_ Min-Zeit 06:10 11:55 00:10 - 00:00 - - 06:05 06:10 00:00
Minimum _ -2,1 C 78 % 1009,0 hPa - 0,0 km/h (0 Bft) - - -4,2 C -2,1 C 0,0 km/h (0 Bft)
_ Max-Zeit 11:55 06:25 11:35 00:00 11:25 - - 11:50 11:55 10:20
Maximum _ 2,3 C 88 % 1015,1 hPa 0,0 l/m 6,5 km/h
S (2 Bft)
- - -1,1 C 2,3 C 9,7 km/h
S (2 Bft)
Durchschnitt _ -1,1 C 85 % 1012,2 hPa #0,0 l/m 1,6 km/h (1 Bft) S - -3,3 C -1,1 C 3,4 km/h (1 Bft)